Meteo Giornale » Osservazioni meteo Francia » Parigi-Orly

ore: 04:30 - Osservazioni Meteo Parigi-Orly
Lat. 48° 44' N Lon. 2° 24' E Alt. 89 metri s.l.m.

molto_nuvoloso Europe/Paris

16 °C

Molto Nuvoloso

Temp. 24 Ore

13 °C

22 °C

Ovest/Nord-Ovest

13 Km/h

Dew point 13 °C

Umidità 82 %

Visibilità  10 Km

Il sole sorge alle ore 06:14

Il sole tramonta alle ore 21:39

Data e Ora Cielo e Fenomeni T °C DP °C Um. % Pres. hPa Vis. km Vento km/h
Oggi h: 04:30 molto_nuvoloso Molto Nuvoloso 16 13 82 1015 10 O/NO 13
Oggi h: 04:00 molto_nuvoloso Molto Nuvoloso 16 13 82 1015 10 O/NO 9.3
Oggi h: 03:30 molto_nuvoloso Molto Nuvoloso 16 12 77 1016 10 NO 11.1
Oggi h: 03:00 molto_nuvoloso Molto Nuvoloso 16 12 77 1016 10 NO 11.1
Oggi h: 02:30 molto_nuvoloso Molto Nuvoloso 16 13 82 1016 10 NO 14.8
Oggi h: 02:00 molto_nuvoloso Molto Nuvoloso 16 13 82 1016 10 N/NO 20.3
Oggi h: 01:30 molto_nuvoloso Molto Nuvoloso 16 13 82 1016 10 NO 13
Oggi h: 01:00 molto_nuvoloso Molto Nuvoloso 16 13 82 1016 10 O/NO 13
Oggi h: 00:30 molto_nuvoloso Molto Nuvoloso 16 12 77 1016 10 NO 16.7
Oggi h: 00:00 molto_nuvoloso Molto Nuvoloso 16 13 82 1016 10 NO 16.7
Ieri h: 23:30 molto_nuvoloso Molto Nuvoloso 16 13 82 1016 10 NO 20.3
Ieri h: 23:00 molto_nuvoloso Molto Nuvoloso 16 13 82 1016 10 NO 18.5
Ieri h: 22:30 molto_nuvoloso Molto Nuvoloso 16 13 82 1016 10 NO 16.7
Ieri h: 22:00 molto_nuvoloso Molto Nuvoloso 16 13 82 1016 10 NO 20.3
Ieri h: 21:30 molto_nuvoloso Molto Nuvoloso 17 13 77 1015 10 NO 25.9
Ieri h: 21:00 molto_nuvoloso Molto Nuvoloso 16 13 82 1015 10 NO 22.2
Ieri h: 20:30 molto_nuvoloso Molto Nuvoloso 16 14 87 1015 10 N 18.5
Ieri h: 20:00 nuvoloso_piovaschi Debole Rovescio di Pioggia 18 12 67 1014 10 NO 22.2
Ieri h: 19:30 molto_nuvoloso Molto Nuvoloso 18 12 67 1014 10 NO 22.2
Ieri h: 19:00 molto_nuvoloso Molto Nuvoloso 18 13 72 1014 10 NO 20.3
Ieri h: 18:30 molto_nuvoloso Molto Nuvoloso 19 12 63 1014 10 NO 29.6
Ieri h: 18:00 molto_nuvoloso Molto Nuvoloso 20 12 59 1013 10 NO 25.9
Ieri h: 17:30 molto_nuvoloso Molto Nuvoloso 21 13 60 1013 10 NO 25.9
Ieri h: 17:00 molto_nuvoloso Molto Nuvoloso 20 14 68 1013 10 NO 24
Ieri h: 16:30 molto_nuvoloso Molto Nuvoloso 22 12 53 1013 10 O/NO 25.9
Ieri h: 16:00 molto_nuvoloso Molto Nuvoloso 22 15 64 1013 10 O/NO 25.9
Ieri h: 15:30 molto_nuvoloso Molto Nuvoloso 19 14 72 1013 10 O/NO 22.2
Ieri h: 15:00 molto_nuvoloso Molto Nuvoloso 20 15 72 1013 10 O 20.3
Ieri h: 14:30 molto_nuvoloso Molto Nuvoloso 19 14 72 1013 10 O/SO 20.3
Ieri h: 14:00 molto_nuvoloso Molto Nuvoloso 18 14 77 1013 10 O 18.5
Ieri h: 13:30 molto_nuvoloso Molto Nuvoloso 17 13 77 1013 10 O 22.2
Ieri h: 13:00 coperto Coperto 17 12 72 1013 10 O 20.3
Ieri h: 12:30 coperto Coperto 18 14 77 1013 10 O 20.3
Ieri h: 12:00 coperto Coperto 17 13 77 1013 10 O/SO 16.7
Ieri h: 11:30 coperto Coperto 16 13 82 1013 10 O 18.5
Ieri h: 11:17 coperto Coperto 16 12 77 1013 10 O 20.3
Ieri h: 10:30 molto_nuvoloso Molto Nuvoloso 16 12 77 1013 10 O 16.7
Ieri h: 10:00 molto_nuvoloso Molto Nuvoloso 16 12 77 1013 10 O 16.7
Ieri h: 09:30 molto_nuvoloso Molto Nuvoloso 15 12 82 1013 10 O 18.5
Ieri h: 09:00 molto_nuvoloso Molto Nuvoloso 14 12 87 1013 10 O 20.3
Ieri h: 08:30 molto_nuvoloso Molto Nuvoloso 14 12 87 1013 10 O 20.3
Ieri h: 08:00 molto_nuvoloso Molto Nuvoloso 14 12 87 1013 10 O 16.7
Ieri h: 07:30 molto_nuvoloso Molto Nuvoloso 14 12 87 1012 10 O 16.7
Ieri h: 07:00 molto_nuvoloso Molto Nuvoloso 14 12 87 1012 10 O 16.7
Ieri h: 06:30 molto_nuvoloso Molto Nuvoloso 13 12 93 1012 10 O/NO 11.1
Ieri h: 06:00 molto_nuvoloso Molto Nuvoloso 13 12 93 1012 10 N 5.5
Ieri h: 05:30 molto_nuvoloso Molto Nuvoloso 13 12 93 1012 10 O/NO 9.3
Ieri h: 05:00 poco_nuvoloso Poco Nuvoloso 13 12 93 1012 10 O/NO 13